Time;durP1;ratioP1;P1;durP2;ratioP2;P2;SDS_P1;SDS_P2;PMS_P1;PMS_P2;Temp;Humidity;BMP_temperature;BMP_pressure;BME280_temperature;BME280_humidity;BME280_pressure;Samples;Min_cycle;Max_cycle;Signal;HPM_P1;HPM_P2
2022/12/14 00:01:33;;;;;;;5.65;4.00;;;;;;;15.09;52.07;100646.56;6040047;23;20091;-81
2022/12/14 00:03:59;;;;;;;5.88;4.70;;;;;;;15.10;52.13;100653.47;6069344;23;20058;-82
2022/12/14 00:06:30;;;;;;;5.65;4.40;;;;;;;15.08;51.76;100643.97;6061446;23;20017;-82
2022/12/14 00:09:00;;;;;;;5.75;4.30;;;;;;;15.12;52.16;100648.28;6145078;23;19989;-82
2022/12/14 00:11:28;;;;;;;6.10;4.60;;;;;;;15.10;52.05;100650.00;6127407;23;20082;-82
2022/12/14 00:14:00;;;;;;;6.63;4.25;;;;;;;15.09;52.09;100651.75;6148472;23;20016;-83
2022/12/14 00:16:45;;;;;;;7.47;4.60;;;;;;;15.10;52.09;100652.59;6126311;23;20006;-82
2022/12/14 00:19:15;;;;;;;5.97;4.18;;;;;;;15.10;51.84;100645.69;6147422;23;20002;-82
2022/12/14 00:21:43;;;;;;;5.90;4.07;;;;;;;15.07;51.72;100640.53;6125994;23;20046;-82
2022/12/14 00:24:13;;;;;;;5.60;4.47;;;;;;;15.07;51.77;100634.44;6150860;23;20006;-83
2022/12/14 00:27:05;;;;;;;5.57;4.15;;;;;;;15.10;51.81;100642.25;6150365;23;19997;-82
2022/12/14 00:29:40;;;;;;;5.10;4.20;;;;;;;15.07;51.82;100630.16;6122356;23;20006;-83
2022/12/14 00:32:08;;;;;;;6.00;4.20;;;;;;;15.08;51.78;100633.59;6073360;23;20006;-82
2022/12/14 00:34:47;;;;;;;5.40;4.07;;;;;;;15.06;51.94;100630.16;6122266;23;20002;-83
2022/12/14 00:37:20;;;;;;;4.93;3.83;;;;;;;15.05;52.04;100629.28;6118122;23;20087;-81
2022/12/14 00:39:47;;;;;;;6.88;4.20;;;;;;;15.05;51.63;100623.22;6087291;23;20006;-81
2022/12/14 00:42:29;;;;;;;5.03;3.85;;;;;;;15.05;51.92;100616.34;6182475;23;20019;-82
2022/12/14 00:44:59;;;;;;;5.07;3.78;;;;;;;15.06;51.60;100617.19;6240514;23;20003;-82
2022/12/14 00:47:34;;;;;;;5.63;3.92;;;;;;;15.02;51.57;100614.63;6215594;23;20031;-82
2022/12/14 01:38:23;;;;;;;4.47;3.85;;;;;;;14.95;51.24;100580.94;6326382;22;20014;-83
2022/12/14 01:44:39;;;;;;;5.55;3.90;;;;;;;14.95;51.43;100580.94;6274713;22;20035;-82
2022/12/14 03:25:17;;;;;;;4.05;3.05;;;;;;;14.79;51.21;100511.03;6238470;22;21057;31
2022/12/14 03:41:16;;;;;;;3.85;2.80;;;;;;;14.75;51.11;100496.38;6285287;22;20046;-83
2022/12/14 03:44:06;;;;;;;4.10;2.65;;;;;;;14.75;51.09;100488.59;6297265;22;20037;-83
2022/12/14 03:46:57;;;;;;;3.88;2.78;;;;;;;14.75;51.06;100491.19;6300776;22;20003;-82
2022/12/14 03:50:07;;;;;;;3.40;2.80;;;;;;;14.75;51.03;100487.75;6274810;22;20027;-83
2022/12/14 03:53:01;;;;;;;3.95;2.97;;;;;;;14.76;51.05;100486.84;6277601;22;20026;-83
2022/12/14 03:55:50;;;;;;;3.90;2.85;;;;;;;14.71;50.93;100479.09;6277702;22;20008;-83
2022/12/14 03:58:33;;;;;;;4.03;3.13;;;;;;;14.74;50.95;100484.31;6304118;22;20007;-83
2022/12/14 04:01:31;;;;;;;3.67;2.97;;;;;;;14.73;51.01;100479.97;6277854;22;20015;-83
2022/12/14 04:04:43;;;;;;;3.67;2.70;;;;;;;14.72;50.87;100479.97;6304273;22;20006;-83
2022/12/14 04:07:46;;;;;;;;;;;;;;;14.72;50.99;100482.56;6192034;22;20037;-83
2022/12/14 04:19:43;;;;;;;4.05;2.75;;;;;;;14.71;51.14;100462.72;6280021;22;20052;-83
2022/12/14 04:22:24;;;;;;;4.32;2.83;;;;;;;14.68;51.01;100453.22;6298668;22;20011;-83
2022/12/14 04:31:21;;;;;;;3.08;2.70;;;;;;;14.68;51.06;100454.97;6209201;23;20000;-83
2022/12/14 04:33:55;;;;;;;3.35;2.63;;;;;;;14.70;50.94;100458.38;6197239;23;20068;-83
2022/12/14 04:36:59;;;;;;;4.18;2.95;;;;;;;14.67;50.96;100448.91;6179794;23;20005;-83
2022/12/14 04:39:48;;;;;;;3.22;2.63;;;;;;;14.67;51.06;100456.66;6183068;23;19993;-83
2022/12/14 04:42:24;;;;;;;3.45;2.50;;;;;;;14.68;50.93;100453.22;6237922;23;20021;-83
2022/12/14 04:45:05;;;;;;;3.20;2.60;;;;;;;14.68;50.77;100455.81;6215926;23;20020;-83
2022/12/14 04:47:48;;;;;;;3.17;2.70;;;;;;;14.66;51.04;100451.53;6240422;23;20005;-83
2022/12/14 04:50:30;;;;;;;3.22;2.55;;;;;;;14.68;50.93;100458.41;6239921;23;19992;-82
2022/12/14 06:07:39;;;;;;;3.25;2.50;;;;;;;14.64;50.91;100414.41;6234713;22;20026;31
2022/12/14 06:10:05;;;;;;;3.63;2.65;;;;;;;14.65;50.93;100410.94;6240530;23;20028;-82
2022/12/14 06:12:31;;;;;;;3.78;2.42;;;;;;;14.63;50.63;100417.84;6211266;23;20008;-82
2022/12/14 06:14:56;;;;;;;4.78;2.70;;;;;;;14.70;50.90;100402.28;6190997;23;19989;-81
2022/12/14 06:22:32;;;;;;;3.15;2.65;;;;;;;14.75;50.98;100417.81;6325359;22;20003;-80
2022/12/14 06:25:17;;;;;;;6.18;2.63;;;;;;;14.71;51.11;100424.72;6306446;22;20026;-80
2022/12/14 06:28:01;;;;;;;3.28;2.50;;;;;;;14.67;51.16;100427.34;6331373;22;20003;-81
2022/12/14 06:30:27;;;;;;;;;;;;;;;14.69;51.25;100428.19;6306220;22;20008;-83
2022/12/14 06:33:11;;;;;;;3.65;2.60;;;;;;;14.66;51.22;100425.63;6330615;22;19914;-81
2022/12/14 06:39:50;;;;;;;6.60;2.78;;;;;;;14.63;51.22;100429.06;6287638;22;20352;-82
2022/12/14 06:42:25;;;;;;;3.35;2.58;;;;;;;14.63;51.37;100429.06;6305405;22;20012;-83
2022/12/14 06:45:01;;;;;;;5.82;2.75;;;;;;;14.64;51.02;100429.94;6256006;22;20027;-83
2022/12/14 06:47:36;;;;;;;6.88;2.95;;;;;;;14.63;51.16;100430.78;6215611;22;20067;-82
2022/12/14 06:50:01;;;;;;;5.40;2.80;;;;;;;14.64;51.48;100432.53;6280747;22;20011;-81
2022/12/14 06:52:26;;;;;;;5.32;2.80;;;;;;;14.64;51.32;100435.97;6282686;22;20014;-80
2022/12/14 06:54:52;;;;;;;3.28;2.50;;;;;;;14.71;51.27;100429.91;6235317;22;20008;-81
2022/12/14 06:57:17;;;;;;;5.63;3.10;;;;;;;14.74;51.45;100426.44;6229994;22;20007;-81
2022/12/14 06:59:42;;;;;;;5.85;3.30;;;;;;;14.70;51.38;100429.91;6227637;22;20340;-82
2022/12/14 07:02:08;;;;;;;5.00;3.20;;;;;;;14.70;51.51;100422.13;6254561;22;20030;-82
2022/12/14 07:04:33;;;;;;;10.27;4.25;;;;;;;14.68;51.41;100423.88;6226463;22;20079;-81
2022/12/14 07:06:58;;;;;;;5.28;3.53;;;;;;;14.67;51.38;100425.59;6252091;22;20019;-81
2022/12/14 07:09:24;;;;;;;6.07;3.45;;;;;;;14.64;51.47;100422.19;6202301;22;20008;-81
2022/12/14 07:11:50;;;;;;;10.40;3.60;;;;;;;14.62;51.79;100417.00;6252727;22;20004;-82
2022/12/14 07:14:16;;;;;;;7.80;3.50;;;;;;;14.64;51.56;100424.75;6227499;22;20374;-80
2022/12/14 07:16:41;;;;;;;4.97;2.97;;;;;;;14.62;51.38;100429.94;6278681;22;20019;-81
2022/12/14 07:19:09;;;;;;;9.07;3.60;;;;;;;14.63;51.48;100435.97;6278712;22;20018;-80
2022/12/14 07:21:34;;;;;;;5.13;3.08;;;;;;;14.62;51.41;100432.53;6257617;22;20383;-81
2022/12/14 07:24:00;;;;;;;5.57;3.70;;;;;;;14.63;51.58;100426.47;6236756;22;20007;-80
2022/12/14 07:26:26;;;;;;;5.97;3.20;;;;;;;14.64;51.46;100432.53;6233757;22;20000;-80
2022/12/14 07:28:52;;;;;;;5.07;3.35;;;;;;;14.62;51.34;100435.13;6296093;22;19999;-80
2022/12/14 07:31:21;;;;;;;5.93;3.47;;;;;;;14.62;51.24;100437.72;6269217;22;20007;-80
2022/12/14 07:33:47;;;;;;;4.80;3.33;;;;;;;14.61;51.39;100433.38;6259898;22;20003;-80
2022/12/14 07:36:16;;;;;;;5.22;3.20;;;;;;;14.62;51.35;100432.53;6255669;22;20000;-80
2022/12/14 07:38:43;;;;;;;5.88;2.92;;;;;;;14.63;51.26;100433.38;6251674;23;20020;-80
2022/12/14 07:41:14;;;;;;;6.22;3.35;;;;;;;14.62;51.30;100429.09;6226957;23;20000;-80
2022/12/14 07:43:41;;;;;;;4.15;3.17;;;;;;;14.62;51.29;100429.94;6253175;23;20004;-79
2022/12/14 07:46:09;;;;;;;4.25;3.13;;;;;;;14.63;51.22;100435.97;6229309;23;20004;-81
2022/12/14 07:48:35;;;;;;;4.93;3.15;;;;;;;14.60;50.86;100429.09;6263098;23;20004;-81
2022/12/14 07:51:06;;;;;;;5.15;3.22;;;;;;;14.60;51.09;100429.09;6233547;23;20072;-81
2022/12/14 07:53:32;;;;;;;4.38;3.15;;;;;;;14.62;51.34;100427.34;6240127;23;20134;-81
2022/12/14 07:56:06;;;;;;;4.88;3.10;;;;;;;14.63;51.15;100428.22;6227680;23;20026;-80
2022/12/14 07:58:34;;;;;;;5.03;3.38;;;;;;;14.61;51.26;100433.38;6227672;23;20078;-81
2022/12/14 08:01:19;;;;;;;3.92;2.80;;;;;;;14.63;51.13;100433.38;6201007;23;20059;-80
2022/12/14 08:03:47;;;;;;;5.28;3.25;;;;;;;14.62;51.09;100437.72;6226500;23;20004;-80
2022/12/14 08:06:14;;;;;;;4.97;2.95;;;;;;;14.63;51.23;100431.66;6225427;23;20047;-79
2022/12/14 08:08:40;;;;;;;4.53;3.20;;;;;;;14.63;51.13;100433.38;6253362;23;20012;-80
2022/12/14 08:11:06;;;;;;;5.15;3.15;;;;;;;14.63;51.00;100428.22;6203492;23;20062;-81
2022/12/14 08:13:32;;;;;;;5.25;3.33;;;;;;;14.64;51.09;100429.94;6228331;23;19996;-81
2022/12/14 08:16:10;;;;;;;6.13;3.28;;;;;;;14.64;50.95;100438.56;6229938;23;20091;-81
2022/12/14 08:18:35;;;;;;;4.72;3.20;;;;;;;14.63;50.84;100430.78;6244148;23;20004;-81
2022/12/14 08:21:02;;;;;;;4.95;3.20;;;;;;;14.65;50.91;100436.84;6214064;23;20008;-80
2022/12/14 08:23:28;;;;;;;5.68;3.22;;;;;;;14.64;50.92;100435.13;6235230;23;20004;-80
2022/12/14 08:25:55;;;;;;;4.47;2.80;;;;;;;14.66;50.94;100448.94;6241001;23;20042;-81
2022/12/14 08:28:21;;;;;;;4.55;3.25;;;;;;;14.65;50.81;100447.19;6258704;23;20004;-81
2022/12/14 08:30:46;;;;;;;3.85;2.97;;;;;;;14.66;50.71;100449.78;6228017;23;20015;-80
2022/12/14 08:33:12;;;;;;;3.97;3.00;;;;;;;14.67;50.74;100451.50;6178482;23;20099;-81
2022/12/14 08:35:37;;;;;;;4.78;3.20;;;;;;;14.67;50.96;100461.84;6230685;23;20028;-81
2022/12/14 08:38:02;;;;;;;4.28;3.05;;;;;;;14.68;50.88;100453.22;6198941;23;20024;-80
2022/12/14 08:40:29;;;;;;;4.05;3.00;;;;;;;14.69;50.64;100461.84;6199043;23;20442;-80
2022/12/14 08:42:54;;;;;;;4.53;3.50;;;;;;;14.68;50.89;100462.75;6171381;23;20043;-79
2022/12/14 08:45:20;;;;;;;5.75;3.30;;;;;;;14.71;50.99;100466.16;6168015;23;20001;-79
2022/12/14 08:47:46;;;;;;;4.60;3.10;;;;;;;14.73;50.60;100463.56;6217624;23;20005;-79
2022/12/14 08:50:12;;;;;;;5.05;3.35;;;;;;;14.74;50.79;100465.28;6192592;23;20372;-79
2022/12/14 08:52:37;;;;;;;3.97;3.10;;;;;;;14.77;50.50;100462.69;6167742;23;20024;-79
2022/12/14 08:55:05;;;;;;;3.85;3.15;;;;;;;14.79;50.70;100468.75;6219149;23;20011;-80
2022/12/14 08:57:30;;;;;;;3.75;2.90;;;;;;;14.80;50.68;100462.66;6168575;23;20015;-79
2022/12/14 08:59:55;;;;;;;4.38;3.15;;;;;;;14.83;50.58;100470.44;6219331;23;20008;-79
2022/12/14 09:02:21;;;;;;;3.42;2.72;;;;;;;14.83;50.64;100460.09;6167977;23;20011;-79
2022/12/14 09:04:46;;;;;;;4.13;3.00;;;;;;;14.83;50.55;100460.09;6219055;23;20084;-79
2022/12/14 09:07:12;;;;;;;4.43;3.20;;;;;;;14.83;50.80;100465.28;6196237;23;20443;-79
2022/12/14 09:09:37;;;;;;;4.47;2.85;;;;;;;14.84;50.59;100466.97;6171667;23;20016;-78
2022/12/14 09:12:06;;;;;;;3.72;2.95;;;;;;;14.85;50.58;100465.25;6193221;23;20417;-80
2022/12/14 09:14:33;;;;;;;4.43;2.80;;;;;;;14.85;50.50;100462.66;6194664;23;20310;-80
2022/12/14 09:16:59;;;;;;;3.35;2.80;;;;;;;14.85;50.83;100463.53;6168422;23;20009;-79
2022/12/14 09:19:24;;;;;;;3.85;2.90;;;;;;;14.86;50.65;100472.16;6192545;23;20430;-79
2022/12/14 09:21:50;;;;;;;3.63;2.90;;;;;;;14.86;50.77;100474.75;6167384;23;20019;-79
2022/12/14 09:24:15;;;;;;;3.70;2.80;;;;;;;14.87;50.83;100472.13;6192273;23;20009;-80
2022/12/14 09:26:41;;;;;;;4.03;2.80;;;;;;;14.87;50.72;100471.28;6169206;23;20043;-79
2022/12/14 09:29:06;;;;;;;3.95;2.70;;;;;;;14.87;50.80;100463.50;6192566;23;20015;-80
2022/12/14 09:31:32;;;;;;;4.93;3.25;;;;;;;14.87;50.89;100474.72;6167427;23;20377;-80
2022/12/14 09:33:57;;;;;;;4.18;3.20;;;;;;;14.86;50.66;100467.84;6192060;23;20066;-80
2022/12/14 09:36:25;;;;;;;3.75;2.85;;;;;;;14.89;50.87;100479.91;6167231;23;20029;-80
2022/12/14 09:38:54;;;;;;;5.03;3.00;;;;;;;14.88;50.68;100471.28;6195208;23;20020;-80
2022/12/14 09:41:35;;;;;;;3.85;3.03;;;;;;;14.88;50.60;100468.69;6220845;23;20012;-80
2022/12/14 09:44:12;;;;;;;3.95;3.15;;;;;;;14.88;50.65;100465.25;6202430;23;20004;-80
2022/12/14 09:46:57;;;;;;;4.18;3.05;;;;;;;14.88;50.91;100466.09;6222537;23;20385;-79
2022/12/14 09:49:33;;;;;;;4.45;3.05;;;;;;;14.88;50.69;100458.31;6218442;23;20068;-80
2022/12/14 09:52:02;;;;;;;3.85;3.15;;;;;;;14.88;50.80;100453.16;6191661;23;20047;-80
2022/12/14 09:54:32;;;;;;;4.40;3.35;;;;;;;14.88;50.59;100455.75;6192088;23;20016;-80
2022/12/14 09:57:03;;;;;;;4.15;2.92;;;;;;;14.88;50.52;100452.28;6218393;23;20421;-79
2022/12/14 09:59:30;;;;;;;4.43;2.97;;;;;;;14.88;50.79;100453.16;6191875;23;20058;-80
2022/12/14 10:02:21;;;;;;;3.72;2.90;;;;;;;14.90;50.92;100455.75;6194889;23;20425;-80
2022/12/14 10:05:04;;;;;;;3.15;2.60;;;;;;;15.07;50.56;100453.03;6232043;23;20000;-80
2022/12/14 10:07:43;;;;;;;3.88;2.72;;;;;;;15.24;50.33;100464.19;6195835;23;20009;-80
2022/12/14 10:10:35;;;;;;;4.13;2.88;;;;;;;15.35;50.27;100464.13;6194159;23;20040;-80
2022/12/14 10:13:27;;;;;;;3.55;2.88;;;;;;;15.42;50.27;100456.31;6220964;23;20008;-80
2022/12/14 10:16:07;;;;;;;4.20;2.88;;;;;;;15.47;50.20;100458.00;6217945;23;20337;-80
2022/12/14 10:18:41;;;;;;;3.70;3.10;;;;;;;15.49;50.04;100451.09;6217834;23;20054;-80
2022/12/14 10:21:17;;;;;;;4.05;2.80;;;;;;;15.49;50.30;100438.97;6191258;23;20326;-79
2022/12/14 10:23:57;;;;;;;3.85;2.83;;;;;;;15.51;50.22;100449.34;6191541;23;20000;-80
2022/12/14 10:26:30;;;;;;;4.10;2.97;;;;;;;15.52;49.97;100451.06;6191601;23;20000;-80
2022/12/14 10:29:01;;;;;;;3.97;2.88;;;;;;;15.52;50.16;100448.47;6191080;23;20043;-79
2022/12/14 10:31:48;;;;;;;3.42;2.83;;;;;;;15.54;50.01;100449.31;6191033;23;20047;-79
2022/12/14 10:34:23;;;;;;;3.70;2.65;;;;;;;15.54;50.13;100450.16;6191971;23;20009;-81
2022/12/14 10:36:53;;;;;;;3.53;2.78;;;;;;;15.55;50.15;100440.69;6217595;23;20452;-79
2022/12/14 10:39:33;;;;;;;3.95;2.90;;;;;;;15.57;49.91;100459.66;6211188;23;20460;-80
2022/12/14 10:42:33;;;;;;;3.63;2.78;;;;;;;15.55;50.13;100453.63;6249206;23;20426;-79
2022/12/14 10:45:08;;;;;;;3.30;2.45;;;;;;;15.57;50.05;100454.47;6188732;23;20004;-79
2022/12/14 10:47:38;;;;;;;4.10;2.88;;;;;;;15.56;50.03;100451.00;6221492;23;20004;-80
2022/12/14 10:50:26;;;;;;;3.83;2.80;;;;;;;15.59;50.07;100447.53;6221168;23;20031;-80
2022/12/14 10:52:53;;;;;;;4.15;2.80;;;;;;;15.59;49.86;100440.63;6221380;23;20024;-80
2022/12/14 10:55:33;;;;;;;3.30;2.60;;;;;;;15.62;50.23;100444.94;6196637;23;20007;-80
2022/12/14 10:57:59;;;;;;;3.50;2.95;;;;;;;15.64;49.90;100444.03;6248452;23;20023;-79
2022/12/14 11:00:25;;;;;;;2.95;2.30;;;;;;;15.67;49.58;100437.13;6221369;23;20007;-80
2022/12/14 11:02:54;;;;;;;3.95;2.75;;;;;;;15.66;49.75;100446.63;6221628;23;20008;-79
2022/12/14 11:05:41;;;;;;;4.00;2.80;;;;;;;15.68;49.85;100439.69;6224325;23;19999;-80
2022/12/14 11:08:07;;;;;;;3.30;2.67;;;;;;;15.68;49.83;100442.28;6259128;23;20008;-79
2022/12/14 11:10:35;;;;;;;3.47;2.80;;;;;;;15.69;49.83;100448.34;6231143;23;20030;-80
2022/12/14 11:13:05;;;;;;;2.97;2.42;;;;;;;15.72;49.53;100449.22;6231305;23;20007;-82
2022/12/14 11:15:30;;;;;;;3.55;2.58;;;;;;;15.71;49.74;100439.69;6231973;23;20015;-80
2022/12/14 11:18:05;;;;;;;3.08;2.58;;;;;;;15.73;49.84;100442.28;6231217;23;20004;-81
2022/12/14 11:20:32;;;;;;;3.28;2.63;;;;;;;15.74;49.66;100439.69;6254122;23;20019;-79
2022/12/14 11:23:05;;;;;;;3.13;2.45;;;;;;;15.75;49.60;100438.81;6227002;23;20008;-80
2022/12/14 11:25:38;;;;;;;3.45;2.58;;;;;;;15.76;49.53;100439.66;6224243;23;20068;-80
2022/12/14 11:28:26;;;;;;;3.28;2.28;;;;;;;15.79;49.56;100437.91;6252099;23;20007;-80
2022/12/14 11:31:03;;;;;;;3.25;2.25;;;;;;;15.79;49.70;100439.66;6230848;23;20004;-80
2022/12/14 11:33:53;;;;;;;2.90;2.17;;;;;;;15.80;49.59;100441.34;6238627;23;20015;-80
2022/12/14 11:36:30;;;;;;;3.28;2.35;;;;;;;15.80;49.62;100434.44;6261317;23;20004;-80
2022/12/14 11:38:57;;;;;;;4.95;2.45;;;;;;;15.81;49.76;100430.97;6217895;23;20075;-79
2022/12/14 11:41:27;;;;;;;2.78;2.22;;;;;;;15.82;49.84;100431.81;6199500;23;20000;-80
2022/12/14 11:44:38;;;;;;;3.10;2.20;;;;;;;15.84;49.69;100433.53;6176190;23;20031;-81
2022/12/14 11:47:11;;;;;;;3.78;1.83;;;;;;;15.87;49.80;100437.81;6212539;23;20000;-80
2022/12/14 11:49:36;;;;;;;3.00;2.40;;;;;;;15.88;49.80;100441.31;6227638;23;20004;-80
2022/12/14 11:52:13;;;;;;;4.65;2.20;;;;;;;15.90;49.90;100435.22;6197524;23;20238;-80
2022/12/14 11:54:51;;;;;;;3.28;2.10;;;;;;;15.90;49.77;100431.78;6198799;23;20032;-81
2022/12/14 11:57:19;;;;;;;2.72;2.20;;;;;;;15.92;49.68;100430.88;6198800;23;20035;-79
2022/12/14 11:59:56;;;;;;;2.60;2.20;;;;;;;15.95;49.85;100424.81;6196497;23;20008;-80
2022/12/14 12:02:46;;;;;;;2.90;1.95;;;;;;;15.95;49.77;100425.66;6195892;23;20005;-79
2022/12/14 12:05:14;;;;;;;3.38;2.40;;;;;;;15.97;49.58;100428.25;6196111;23;20008;-81
2022/12/14 12:07:49;;;;;;;4.68;2.20;;;;;;;15.98;49.62;100423.03;6223676;23;20008;-80
2022/12/14 12:10:40;;;;;;;2.85;2.45;;;;;;;16.00;49.61;100425.59;6200712;23;20012;-80
2022/12/14 12:13:35;;;;;;;3.15;2.15;;;;;;;15.98;49.70;100417.84;6198993;23;20076;-80
2022/12/14 12:16:12;;;;;;;2.60;2.25;;;;;;;16.01;49.58;100414.38;6196547;23;20441;-80
2022/12/14 12:18:48;;;;;;;2.90;2.10;;;;;;;16.00;49.56;100423.00;6196630;23;20008;-81
2022/12/14 12:21:18;;;;;;;3.33;2.08;;;;;;;16.03;49.69;100425.59;6199210;23;20008;-80
2022/12/14 12:24:00;;;;;;;3.08;2.30;;;;;;;16.01;49.65;100423.00;6197318;23;20063;-79
2022/12/14 12:26:40;;;;;;;3.00;2.22;;;;;;;16.02;49.70;100426.44;6194934;23;20468;-80
2022/12/14 12:29:22;;;;;;;2.88;2.15;;;;;;;16.04;49.53;100424.69;6197569;23;20001;-80
2022/12/14 12:32:12;;;;;;;2.45;2.10;;;;;;;16.03;49.55;100421.25;6219082;23;20004;-81
2022/12/14 12:34:46;;;;;;;3.10;2.10;;;;;;;16.03;49.76;100423.84;6225372;23;20001;-79
2022/12/14 12:37:19;;;;;;;3.50;2.35;;;;;;;16.06;49.98;100427.28;6230786;23;20012;-80
2022/12/14 12:39:47;;;;;;;;;;;;;;;16.06;49.98;100430.75;6212586;23;20016;-80
2022/12/14 12:42:25;;;;;;;3.83;2.58;;;;;;;16.06;49.96;100435.94;6200642;23;20348;-79
2022/12/14 12:44:59;;;;;;;3.45;2.17;;;;;;;16.04;50.18;100437.69;6221606;23;20031;-79
2022/12/14 12:47:34;;;;;;;2.60;2.05;;;;;;;16.01;49.95;100429.94;6194938;23;20005;-79
2022/12/14 12:50:02;;;;;;;2.88;2.20;;;;;;;16.04;49.99;100437.69;6194970;23;20039;-79
2022/12/14 12:52:53;;;;;;;3.63;1.92;;;;;;;16.06;50.29;100429.88;6195389;23;20087;-79
2022/12/14 12:55:21;;;;;;;3.55;2.03;;;;;;;16.07;49.69;100431.59;6195397;23;20005;-79
2022/12/14 12:57:52;;;;;;;2.70;1.90;;;;;;;16.07;49.83;100429.88;6196341;23;20079;-79
2022/12/14 13:00:21;;;;;;;2.28;1.80;;;;;;;16.08;49.72;100434.19;6195857;23;20008;-79
2022/12/14 13:03:36;;;;;;;2.47;1.70;;;;;;;16.08;49.72;100429.00;6193447;23;20008;-79
2022/12/14 13:06:20;;;;;;;2.75;2.03;;;;;;;16.11;49.50;100438.47;6196239;23;20063;-80
2022/12/14 13:08:51;;;;;;;2.95;1.90;;;;;;;16.09;49.32;100432.44;6205024;23;20428;-80
2022/12/14 13:11:24;;;;;;;2.90;2.05;;;;;;;16.12;49.55;100437.63;6225928;23;20075;-80
2022/12/14 13:13:54;;;;;;;2.40;1.90;;;;;;;16.12;49.59;100437.63;6200589;23;20102;-80
2022/12/14 13:16:25;;;;;;;2.30;1.70;;;;;;;16.13;49.59;100428.94;6230361;23;20016;-81
2022/12/14 13:18:55;;;;;;;2.90;2.10;;;;;;;16.11;49.36;100431.53;6204069;23;20008;-80
2022/12/14 13:21:38;;;;;;;3.05;1.92;;;;;;;16.12;49.37;100437.63;6225459;23;20004;-80
2022/12/14 13:24:05;;;;;;;2.75;1.88;;;;;;;16.11;49.41;100433.28;6199903;23;20001;-81
2022/12/14 13:27:25;;;;;;;2.90;2.00;;;;;;;16.12;49.60;100430.69;6225777;23;20008;-81
2022/12/14 13:30:14;;;;;;;2.80;1.88;;;;;;;16.13;49.47;100431.53;6048417;23;20106;-80
2022/12/14 13:33:19;;;;;;;2.15;1.73;;;;;;;16.15;49.28;100435.84;6217515;23;20024;-82
2022/12/14 13:36:30;;;;;;;2.72;1.83;;;;;;;16.15;49.43;100429.78;6231924;23;20008;-85
2022/12/14 13:39:44;;;;;;;2.40;1.80;;;;;;;16.14;49.36;100428.94;6256628;23;20008;-83
2022/12/14 13:42:46;;;;;;;2.90;2.00;;;;;;;16.14;49.34;100422.91;6247830;23;20016;-83
2022/12/14 13:45:41;;;;;;;3.40;2.15;;;;;;;16.13;49.72;100414.22;6242063;23;20004;-82
2022/12/14 13:48:49;;;;;;;8.48;2.10;;;;;;;16.11;49.29;100410.78;6253748;23;20047;-82
2022/12/14 13:51:40;;;;;;;2.65;2.08;;;;;;;16.14;49.20;100420.31;6218395;23;20012;-84
2022/12/14 13:54:35;;;;;;;3.10;2.15;;;;;;;16.14;49.34;100422.91;6242840;23;20004;-83
2022/12/14 13:57:29;;;;;;;2.78;2.10;;;;;;;16.14;49.61;100428.94;6247632;22;20051;-84
2022/12/14 13:59:57;;;;;;;2.87;1.83;;;;;;;16.12;49.54;100425.50;6244452;23;20060;-83
2022/12/14 14:02:49;;;;;;;4.28;2.10;;;;;;;16.12;49.52;100422.06;6222819;23;20019;-84
2022/12/14 14:05:25;;;;;;;5.05;2.00;;;;;;;16.13;49.46;100427.19;6247062;23;20010;-83
2022/12/14 14:08:04;;;;;;;3.42;1.95;;;;;;;16.11;49.61;100421.16;6242692;23;20008;-83
2022/12/14 14:10:43;;;;;;;2.83;2.10;;;;;;;16.14;49.51;100425.50;6244590;23;20012;-84
2022/12/14 14:13:47;;;;;;;2.90;1.90;;;;;;;16.38;48.98;100424.38;6236445;22;20417;-82
2022/12/14 14:16:21;;;;;;;2.50;2.10;;;;;;;16.41;48.87;100434.72;6227902;23;20051;-82
2022/12/14 14:18:55;;;;;;;2.72;2.00;;;;;;;16.29;49.29;100429.63;6270536;23;20043;-81
2022/12/14 14:21:30;;;;;;;3.47;1.90;;;;;;;16.21;49.25;100433.19;6244165;23;20008;-84
2022/12/14 14:23:59;;;;;;;2.50;1.80;;;;;;;16.16;49.33;100440.16;6243072;23;20016;-83
2022/12/14 14:29:48;;;;;;;2.70;1.88;;;;;;;16.14;49.33;100434.13;6255927;23;20019;-81
2022/12/14 14:32:38;;;;;;;3.47;1.90;;;;;;;16.14;49.56;100433.28;6227893;23;20016;-81
2022/12/14 14:35:22;;;;;;;2.70;1.88;;;;;;;16.12;49.53;100433.28;6228052;23;20008;-81
2022/12/14 14:37:59;;;;;;;;;;;;;;;16.13;49.45;100436.72;6227353;23;20087;-81
2022/12/14 14:40:31;;;;;;;2.88;1.90;;;;;;;16.12;49.37;100435.88;6199732;23;19982;-81
2022/12/14 14:42:59;;;;;;;2.13;1.73;;;;;;;16.12;49.59;100445.41;6197748;23;20020;-80
2022/12/14 14:45:48;;;;;;;2.83;1.92;;;;;;;16.12;49.41;100442.81;6222599;23;20001;-79
2022/12/14 14:48:51;;;;;;;2.88;1.83;;;;;;;16.11;49.63;100454.91;6197497;23;20000;-80
2022/12/14 14:51:27;;;;;;;3.05;1.80;;;;;;;16.11;49.65;100448.88;6203311;23;20051;-80
2022/12/14 14:54:17;;;;;;;2.53;1.88;;;;;;;16.10;49.43;100454.94;6227405;23;20298;-79
2022/12/14 14:56:50;;;;;;;2.55;2.10;;;;;;;16.10;49.51;100454.94;6226757;23;20001;-79
2022/12/14 14:59:18;;;;;;;2.63;1.67;;;;;;;16.11;49.50;100461.84;6201761;23;20043;-79
2022/12/14 15:01:52;;;;;;;2.58;2.00;;;;;;;16.07;49.65;100458.44;6198045;23;20005;-80
2022/12/14 15:04:42;;;;;;;2.50;1.80;;;;;;;16.07;49.53;100460.16;6196475;23;20005;-80
2022/12/14 15:07:14;;;;;;;2.38;1.73;;;;;;;16.08;49.41;100469.66;6194931;23;20042;-80
2022/12/14 15:09:43;;;;;;;3.15;1.73;;;;;;;16.08;49.49;100469.66;6221813;23;20004;-81
2022/12/14 15:12:27;;;;;;;2.60;1.67;;;;;;;16.09;49.49;100474.84;6222301;23;20000;-81
2022/12/14 15:14:56;;;;;;;;;;;;;;;16.07;49.46;100473.13;6196354;23;20007;-79
2022/12/14 15:17:23;;;;;;;2.70;2.00;;;;;;;16.05;49.59;100475.75;6195013;23;19904;-79
2022/12/14 15:19:54;;;;;;;2.63;1.88;;;;;;;16.07;49.61;100473.13;6195048;23;20011;-81
2022/12/14 15:22:23;;;;;;;2.00;1.80;;;;;;;16.07;49.83;100471.41;6195185;23;20005;-79
2022/12/14 15:24:52;;;;;;;2.55;1.75;;;;;;;16.06;49.34;100474.88;6197000;23;20009;-81
2022/12/14 15:27:28;;;;;;;2.97;1.83;;;;;;;16.06;49.35;100461.03;6222495;23;20005;-80
2022/12/14 15:30:18;;;;;;;2.40;1.83;;;;;;;16.05;49.47;100462.78;6222572;23;20291;-81
2022/12/14 15:32:52;;;;;;;2.35;1.92;;;;;;;16.05;49.53;100462.78;6197394;23;20487;-80
2022/12/14 15:35:38;;;;;;;2.38;1.75;;;;;;;16.06;49.58;100458.44;6222548;23;20011;-80
2022/12/14 15:38:06;;;;;;;2.15;1.55;;;;;;;16.06;49.37;100469.69;6196503;23;20001;-81
2022/12/14 15:40:33;;;;;;;2.70;1.90;;;;;;;16.04;49.35;100471.44;6195222;23;20080;-79
2022/12/14 15:43:16;;;;;;;3.13;2.00;;;;;;;16.04;49.25;100471.44;6195805;23;20035;-79
2022/12/14 15:45:44;;;;;;;2.80;1.85;;;;;;;16.07;49.29;100470.53;6220512;23;20425;-80
2022/12/14 15:48:20;;;;;;;2.53;1.70;;;;;;;16.04;49.34;100466.22;6192408;23;20007;-80
2022/12/14 15:50:50;;;;;;;2.67;1.80;;;;;;;16.04;49.49;100474.00;6220186;23;19997;-79
2022/12/14 15:53:30;;;;;;;1.92;1.55;;;;;;;16.06;49.58;100466.22;6193986;23;20012;-79
2022/12/14 15:55:58;;;;;;;2.80;2.13;;;;;;;16.05;49.42;100473.16;6193131;23;20012;-80
2022/12/14 15:58:43;;;;;;;5.03;3.58;;;;;;;16.05;49.52;100478.34;6219071;23;20004;-81
2022/12/14 16:01:16;;;;;;;5.22;3.97;;;;;;;16.06;49.32;100484.41;6194162;23;20012;-80
2022/12/14 16:03:46;;;;;;;5.90;4.27;;;;;;;16.07;49.34;100487.00;6234130;23;20015;-81
2022/12/14 16:06:13;;;;;;;5.82;4.00;;;;;;;16.06;49.40;100497.38;6213183;23;20003;-80
2022/12/14 16:08:51;;;;;;;4.93;3.78;;;;;;;16.04;49.39;100490.44;6238802;23;19993;-82
2022/12/14 16:11:32;;;;;;;5.40;3.83;;;;;;;16.05;49.25;100486.13;6208794;23;20005;-80
2022/12/14 16:14:02;;;;;;;6.22;4.15;;;;;;;16.06;49.14;100492.19;6207589;23;20314;-83
2022/12/14 16:16:32;;;;;;;5.38;4.03;;;;;;;16.03;49.64;100490.47;6208971;23;20060;-82
2022/12/14 16:19:09;;;;;;;8.27;3.80;;;;;;;15.99;49.31;100489.63;6208974;23;19984;-83
2022/12/14 16:21:36;;;;;;;6.70;4.63;;;;;;;15.99;49.34;100488.78;6209744;23;20079;-83
2022/12/14 16:24:52;;;;;;;7.47;4.53;;;;;;;15.97;49.27;100482.75;6201095;23;20008;-83
2022/12/14 16:27:33;;;;;;;5.13;4.00;;;;;;;15.98;49.33;100484.44;6052887;23;20026;-83
2022/12/14 16:30:34;;;;;;;7.28;4.30;;;;;;;15.95;49.52;100480.16;6230517;23;20000;-83
2022/12/14 16:33:37;;;;;;;6.05;4.20;;;;;;;15.97;49.57;100487.94;6093574;23;20096;-87